createdAt,value
2024-03-16T00:01:24.086Z,7.60
2024-03-16T00:03:51.013Z,7.60
2024-03-16T00:06:17.775Z,7.50
2024-03-16T00:08:44.761Z,7.88
2024-03-16T00:11:11.671Z,7.38
2024-03-16T00:13:38.448Z,8.20
2024-03-16T00:16:05.647Z,7.88
2024-03-16T00:18:33.376Z,7.63
2024-03-16T00:21:00.421Z,7.97
2024-03-16T00:23:27.205Z,7.82
2024-03-16T00:25:53.988Z,8.35
2024-03-16T00:28:20.745Z,8.07
2024-03-16T00:30:47.800Z,8.52
2024-03-16T00:33:14.682Z,7.75
2024-03-16T00:35:41.448Z,7.88
2024-03-16T00:38:08.227Z,7.53
2024-03-16T00:40:35.024Z,8.77
2024-03-16T00:43:01.914Z,9.60
2024-03-16T00:45:28.902Z,10.27
2024-03-16T00:47:57.270Z,10.18
2024-03-16T00:50:24.166Z,10.73
2024-03-16T00:52:50.947Z,10.23
2024-03-16T00:55:17.984Z,10.25
2024-03-16T00:57:44.806Z,10.73
2024-03-16T01:00:12.352Z,10.13
2024-03-16T01:02:40.552Z,10.40
2024-03-16T01:05:07.870Z,10.77
2024-03-16T01:07:34.643Z,10.65
2024-03-16T01:10:02.042Z,10.45
2024-03-16T01:12:29.511Z,10.07
2024-03-16T01:14:56.283Z,9.82
2024-03-16T01:17:23.140Z,10.30
2024-03-16T01:19:50.100Z,8.50
2024-03-16T01:22:16.923Z,10.43
2024-03-16T01:24:43.728Z,9.57
2024-03-16T01:27:10.642Z,10.48
2024-03-16T01:29:37.430Z,9.50
2024-03-16T01:32:06.484Z,10.55
2024-03-16T01:34:33.370Z,9.38
2024-03-16T01:37:00.236Z,9.57
2024-03-16T01:39:27.085Z,10.23
2024-03-16T01:41:53.944Z,9.25
2024-03-16T01:44:20.728Z,8.88
2024-03-16T01:46:48.445Z,9.55
2024-03-16T01:49:15.666Z,9.40
2024-03-16T01:51:42.635Z,10.02
2024-03-16T01:54:11.696Z,9.43
2024-03-16T01:56:38.676Z,8.85
2024-03-16T01:59:05.520Z,10.38
2024-03-16T02:01:32.724Z,9.68
2024-03-16T02:03:59.987Z,9.77
2024-03-16T02:06:29.275Z,9.05
2024-03-16T02:08:56.143Z,10.18
2024-03-16T02:11:23.352Z,9.25
2024-03-16T02:13:50.658Z,9.45
2024-03-16T02:16:17.460Z,9.57
2024-03-16T02:18:44.419Z,10.05
2024-03-16T02:21:11.862Z,9.70
2024-03-16T02:23:40.685Z,9.65
2024-03-16T02:26:08.754Z,9.15
2024-03-16T02:28:35.668Z,8.77
2024-03-16T02:31:02.942Z,9.25
2024-03-16T02:33:29.958Z,8.82
2024-03-16T02:35:57.286Z,9.20
2024-03-16T02:38:24.303Z,9.48
2024-03-16T02:40:51.067Z,9.63
2024-03-16T02:43:17.837Z,9.45
2024-03-16T02:45:44.779Z,9.43
2024-03-16T02:48:12.541Z,10.57
2024-03-16T02:50:39.421Z,8.95
2024-03-16T02:53:06.217Z,10.45
2024-03-16T02:55:33.096Z,9.43
2024-03-16T02:57:59.949Z,10.05
2024-03-16T03:00:28.330Z,9.70
2024-03-16T03:02:55.340Z,10.25
2024-03-16T03:05:23.850Z,9.63
2024-03-16T03:07:50.751Z,9.63
2024-03-16T03:10:18.041Z,9.35
2024-03-16T03:12:46.145Z,8.40
2024-03-16T03:15:13.113Z,8.57
2024-03-16T03:17:40.586Z,7.55
2024-03-16T03:20:10.219Z,8.30
2024-03-16T03:22:37.434Z,7.97
2024-03-16T03:25:04.876Z,6.55
2024-03-16T03:27:32.289Z,6.25
2024-03-16T03:29:59.192Z,5.78
2024-03-16T03:32:26.039Z,5.65
2024-03-16T03:34:52.853Z,5.63
2024-03-16T03:37:21.988Z,5.00
2024-03-16T03:39:53.207Z,4.55
2024-03-16T03:42:20.558Z,4.93
2024-03-16T03:45:07.584Z,4.90
2024-03-16T03:47:51.117Z,4.57
2024-03-16T03:50:27.790Z,4.68
2024-03-16T03:53:00.384Z,5.05
2024-03-16T03:55:27.672Z,4.72
2024-03-16T03:57:55.802Z,4.05
2024-03-16T04:00:23.105Z,4.00
2024-03-16T04:02:50.079Z,3.50
2024-03-16T04:05:16.839Z,4.00
2024-03-16T04:07:44.844Z,3.10
2024-03-16T04:10:11.738Z,3.58
2024-03-16T04:12:38.590Z,3.75
2024-03-16T04:15:05.838Z,3.90
2024-03-16T04:17:32.691Z,3.65
2024-03-16T04:19:59.469Z,3.80
2024-03-16T04:22:26.252Z,4.00
2024-03-16T04:24:53.100Z,2.75
2024-03-16T04:27:20.062Z,2.70
2024-03-16T04:29:46.877Z,2.67
2024-03-16T04:32:13.703Z,2.13
2024-03-16T04:34:40.475Z,2.20
2024-03-16T04:37:07.354Z,1.88
2024-03-16T04:39:34.190Z,2.03
2024-03-16T04:42:00.986Z,1.77
2024-03-16T04:44:27.730Z,1.80
2024-03-16T04:46:55.819Z,1.73
2024-03-16T04:49:22.740Z,1.80
2024-03-16T04:51:49.559Z,1.70
2024-03-16T04:54:16.378Z,1.80
2024-03-16T04:56:43.396Z,1.60
2024-03-16T04:59:12.340Z,1.92
2024-03-16T05:01:39.427Z,1.88
2024-03-16T05:04:06.443Z,1.90
2024-03-16T05:06:34.791Z,2.00
2024-03-16T05:09:11.087Z,2.05
2024-03-16T05:11:38.490Z,2.20
2024-03-16T05:14:07.342Z,2.10
2024-03-16T05:16:38.497Z,2.20
2024-03-16T05:19:05.937Z,1.85
2024-03-16T05:21:33.092Z,2.08
2024-03-16T05:24:03.037Z,2.00
2024-03-16T05:26:31.933Z,2.08
2024-03-16T05:28:59.136Z,2.08
2024-03-16T05:31:27.101Z,2.10
2024-03-16T05:33:54.024Z,2.00
2024-03-16T05:36:20.929Z,1.85
2024-03-16T05:38:47.662Z,1.90
2024-03-16T05:41:14.831Z,2.38
2024-03-16T05:43:44.404Z,2.00
2024-03-16T05:46:14.423Z,1.90
2024-03-16T05:48:41.885Z,2.00
2024-03-16T05:51:08.687Z,2.05
2024-03-16T05:53:35.528Z,2.33
2024-03-16T05:56:02.323Z,1.90
2024-03-16T05:58:32.792Z,2.05
2024-03-16T06:01:00.303Z,2.42
2024-03-16T06:03:28.128Z,2.15
2024-03-16T06:05:55.210Z,2.20
2024-03-16T06:08:22.026Z,2.20
2024-03-16T06:10:49.195Z,2.10
2024-03-16T06:13:16.414Z,2.15
2024-03-16T06:15:43.383Z,2.33
2024-03-16T06:18:10.359Z,2.17
2024-03-16T06:20:37.425Z,2.10
2024-03-16T06:23:04.639Z,1.98
2024-03-16T06:25:37.051Z,2.05
2024-03-16T06:28:08.133Z,1.77
2024-03-16T06:30:36.780Z,2.00
2024-03-16T06:33:10.424Z,1.83
2024-03-16T06:35:44.945Z,1.98
2024-03-16T06:38:11.690Z,1.98
2024-03-16T06:40:38.464Z,1.63
2024-03-16T06:43:05.360Z,1.45
2024-03-16T06:45:32.779Z,1.45
2024-03-16T06:47:59.700Z,1.35
2024-03-16T06:50:26.574Z,1.40
2024-03-16T06:52:53.347Z,1.40
2024-03-16T06:55:20.729Z,1.30
2024-03-16T06:57:47.740Z,1.60
2024-03-16T07:00:15.504Z,1.10
2024-03-16T07:02:42.486Z,1.30
2024-03-16T07:05:10.593Z,1.33
2024-03-16T07:07:37.477Z,1.30
2024-03-16T07:10:07.596Z,1.20
2024-03-16T07:12:34.871Z,1.30
2024-03-16T07:15:01.723Z,1.10
2024-03-16T07:17:32.427Z,1.20
2024-03-16T07:19:59.274Z,1.20
2024-03-16T07:22:26.035Z,1.25
2024-03-16T07:24:52.864Z,1.00
2024-03-16T07:27:19.680Z,1.20
2024-03-16T07:29:46.500Z,1.20
2024-03-16T07:32:13.461Z,1.20
2024-03-16T07:34:41.452Z,1.15
2024-03-16T07:37:08.334Z,1.02
2024-03-16T07:39:35.256Z,1.00
2024-03-16T07:42:02.090Z,1.30
2024-03-16T07:44:30.336Z,1.15
2024-03-16T07:46:57.156Z,1.20
2024-03-16T07:49:23.957Z,1.15
2024-03-16T07:51:50.799Z,1.20
2024-03-16T07:54:17.610Z,1.10
2024-03-16T07:56:44.925Z,1.25
2024-03-16T07:59:12.426Z,1.27
2024-03-16T08:01:39.334Z,1.00
2024-03-16T08:04:06.621Z,1.20
2024-03-16T08:06:33.504Z,1.20
2024-03-16T08:09:00.272Z,1.10
2024-03-16T08:11:29.222Z,1.20
2024-03-16T08:13:56.046Z,1.23
2024-03-16T08:16:22.862Z,1.00
2024-03-16T08:18:50.167Z,1.10
2024-03-16T08:21:17.419Z,1.17
2024-03-16T08:23:45.141Z,0.90
2024-03-16T08:26:13.694Z,1.20
2024-03-16T08:28:41.034Z,1.00
2024-03-16T08:31:09.397Z,1.05
2024-03-16T08:33:36.371Z,1.20
2024-03-16T08:36:06.904Z,1.02
2024-03-16T08:38:34.582Z,0.80
2024-03-16T08:41:03.176Z,1.10
2024-03-16T08:43:31.743Z,0.90
2024-03-16T08:46:02.819Z,1.17
2024-03-16T08:48:29.938Z,1.20
2024-03-16T08:51:00.270Z,0.90
2024-03-16T08:53:27.449Z,1.08
2024-03-16T08:55:59.372Z,1.00
2024-03-16T08:58:26.640Z,1.30
2024-03-16T09:00:56.900Z,1.10
2024-03-16T09:03:23.881Z,1.13
2024-03-16T09:05:50.633Z,1.10
2024-03-16T09:08:17.460Z,1.17
2024-03-16T09:10:45.688Z,1.10
2024-03-16T09:13:12.763Z,1.25
2024-03-16T09:15:40.290Z,1.27
2024-03-16T09:18:07.139Z,0.80
2024-03-16T09:20:34.950Z,0.95
2024-03-16T09:23:02.207Z,0.80
2024-03-16T09:25:29.264Z,1.33
2024-03-16T09:27:56.047Z,1.10
2024-03-16T09:30:23.218Z,1.00
2024-03-16T09:32:50.277Z,1.02
2024-03-16T09:35:17.126Z,1.25
2024-03-16T09:37:43.952Z,1.00
2024-03-16T09:40:12.334Z,0.85
2024-03-16T09:42:39.766Z,0.90
